Time;durP1;ratioP1;P1;durP2;ratioP2;P2;SDS_P1;SDS_P2;PMS_P1;PMS_P2;Temp;Humidity;BMP_temperature;BMP_pressure;BME280_temperature;BME280_humidity;BME280_pressure;Samples;Min_cycle;Max_cycle;Signal;HPM_P1;HPM_P2
2021/01/29 00:01:59;;;;;;;0.60;0.60;;;;;;;7.19;84.06;95769.06;299395;283;63009;-64
2021/01/29 00:07:00;;;;;;;1.02;1.02;;;;;;;7.14;84.02;95764.56;299395;199;63005;-68
2021/01/29 00:12:02;;;;;;;0.60;0.60;;;;;;;7.19;84.57;95750.97;299395;233;63009;-66
2021/01/29 00:17:04;;;;;;;0.60;0.60;;;;;;;7.05;84.49;95755.56;299395;221;63005;-65
2021/01/29 00:22:05;;;;;;;0.60;0.60;;;;;;;6.98;85.63;95736.25;299395;205;63009;-66
2021/01/29 00:27:06;;;;;;;0.60;0.60;;;;;;;6.96;85.97;95735.75;299395;240;63004;-67
2021/01/29 00:32:07;;;;;;;0.62;0.62;;;;;;;6.88;87.14;95720.28;299395;202;63009;-67
2021/01/29 00:37:08;;;;;;;0.60;0.60;;;;;;;6.87;87.85;95699.81;299395;290;63005;-66
2021/01/29 00:42:09;;;;;;;0.60;0.60;;;;;;;6.85;87.93;95702.81;299395;253;63009;-65
2021/01/29 00:47:10;;;;;;;0.60;0.60;;;;;;;6.92;87.86;95713.19;299395;212;63005;-67
2021/01/29 00:52:11;;;;;;;0.60;0.60;;;;;;;6.93;88.11;95714.81;299395;249;63018;-66
2021/01/29 00:57:12;;;;;;;0.60;0.60;;;;;;;6.95;87.95;95699.09;299395;215;63004;-67
2021/01/29 01:02:14;;;;;;;0.60;0.60;;;;;;;6.93;87.99;95683.22;299395;275;63009;-66
2021/01/29 01:07:15;;;;;;;0.60;0.60;;;;;;;6.98;88.33;95668.84;299395;272;63005;-65
2021/01/29 01:12:16;;;;;;;0.60;0.60;;;;;;;6.92;88.31;95660.06;299395;260;63009;-65
2021/01/29 01:17:18;;;;;;;0.70;0.70;;;;;;;6.96;88.59;95638.69;299395;242;63005;-67
2021/01/29 01:22:19;;;;;;;0.70;0.70;;;;;;;7.04;88.63;95640.69;299395;213;63009;-68
2021/01/29 01:27:19;;;;;;;0.60;0.60;;;;;;;7.05;88.31;95624.19;299395;218;63004;-67
2021/01/29 01:32:21;;;;;;;0.60;0.60;;;;;;;7.09;88.02;95610.91;299395;198;63009;-67
2021/01/29 01:37:21;;;;;;;0.60;0.60;;;;;;;7.05;88.10;95589.13;299395;208;63005;-67
2021/01/29 01:42:23;;;;;;;0.60;0.60;;;;;;;7.06;88.17;95582.63;299395;202;63009;-67
2021/01/29 01:47:34;;;;;;;0.60;0.60;;;;;;;6.99;88.59;95570.66;299395;225;63004;-68
2021/01/29 01:52:37;;;;;;;0.60;0.60;;;;;;;6.93;88.43;95558.41;299395;229;63009;-66
2021/01/29 01:57:39;;;;;;;0.60;0.60;;;;;;;6.84;89.13;95552.13;299395;198;63004;-67
2021/01/29 02:02:46;;;;;;;0.60;0.60;;;;;;;6.92;88.75;95546.03;299395;198;63009;-66
2021/01/29 02:07:53;;;;;;;0.68;0.68;;;;;;;6.85;89.14;95529.44;299395;253;63005;-72
2021/01/29 02:12:55;;;;;;;0.70;0.70;;;;;;;6.87;89.27;95513.78;299395;267;63009;-69
2021/01/29 02:18:42;;;;;;;0.60;0.60;;;;;;;6.80;89.13;95508.78;299395;208;63004;-70
2021/01/29 02:24:43;;;;;;;0.70;0.70;;;;;;;6.71;89.68;95506.00;299417;227;63009;-68
2021/01/29 02:30:19;;;;;;;0.60;0.60;;;;;;;6.82;89.46;95503.09;299395;202;63005;-70
2021/01/29 02:36:17;;;;;;;0.70;0.70;;;;;;;6.88;88.90;95488.41;299417;198;63021;-68
2021/01/29 02:42:01;;;;;;;0.60;0.60;;;;;;;6.85;89.22;95470.12;299395;197;63004;-68
2021/01/29 02:47:13;;;;;;;0.60;0.60;;;;;;;6.81;88.72;95463.75;299395;247;63009;-72
2021/01/29 02:52:33;;;;;;;0.65;0.65;;;;;;;6.83;88.62;95445.38;299395;239;63005;-68
2021/01/29 02:58:00;;;;;;;0.60;0.60;;;;;;;6.80;89.01;95429.81;299395;227;63009;-68
2021/01/29 03:03:11;;;;;;;0.60;0.60;;;;;;;6.77;89.27;95438.50;299395;198;63004;-70
2021/01/29 03:08:29;;;;;;;0.60;0.60;;;;;;;6.89;88.68;95441.47;299395;210;63009;-71
2021/01/29 03:13:42;;;;;;;0.60;0.60;;;;;;;6.86;88.71;95415.91;299395;197;63005;-60
2021/01/29 03:19:19;;;;;;;0.60;0.60;;;;;;;6.90;88.14;95418.78;299395;298;63009;-69
2021/01/29 03:24:32;;;;;;;0.60;0.60;;;;;;;6.92;88.29;95411.19;299395;292;63004;-69
2021/01/29 03:29:42;;;;;;;0.60;0.60;;;;;;;6.99;87.99;95406.16;299395;222;63009;-69
2021/01/29 03:35:07;;;;;;;0.60;0.60;;;;;;;6.99;88.13;95390.78;299395;227;63004;-66
2021/01/29 03:40:09;;;;;;;0.70;0.70;;;;;;;7.01;87.58;95385.06;299439;207;63009;-68
2021/01/29 03:45:41;;;;;;;0.60;0.60;;;;;;;7.05;87.64;95377.97;299395;300;63005;-66
2021/01/29 03:51:13;;;;;;;0.60;0.60;;;;;;;7.07;87.49;95378.47;299395;235;63019;-61
2021/01/29 03:56:33;;;;;;;0.60;0.60;;;;;;;7.24;86.89;95365.09;299395;218;63004;-65
2021/01/29 04:02:00;;;;;;;0.60;0.60;;;;;;;7.17;87.08;95348.53;299395;198;63009;-68
2021/01/29 04:07:39;;;;;;;0.60;0.60;;;;;;;7.25;87.12;95330.81;299395;219;63005;-63
2021/01/29 04:12:55;;;;;;;0.60;0.60;;;;;;;7.16;86.89;95317.28;299395;218;63005;-68
2021/01/29 04:18:09;;;;;;;0.60;0.60;;;;;;;7.01;87.60;95317.66;299395;266;63009;-67
2021/01/29 04:23:21;;;;;;;0.60;0.60;;;;;;;7.08;87.14;95299.16;299417;280;63008;-64
2021/01/29 04:28:25;;;;;;;0.60;0.60;;;;;;;6.99;87.44;95271.31;299395;207;63009;-63
2021/01/29 04:33:35;;;;;;;0.70;0.70;;;;;;;6.97;87.20;95262.75;299417;268;63004;-69
2021/01/29 04:38:46;;;;;;;0.60;0.60;;;;;;;6.88;87.69;95249.25;299394;264;64013;-70
2021/01/29 04:44:15;;;;;;;0.60;0.60;;;;;;;6.77;88.02;95245.22;299395;197;63005;-68
2021/01/29 04:49:55;;;;;;;0.60;0.60;;;;;;;6.75;88.59;95223.16;299395;233;63008;-67
2021/01/29 04:55:33;;;;;;;0.60;0.60;;;;;;;6.61;88.47;95201.66;299395;227;63004;-59
2021/01/29 05:00:59;;;;;;;0.60;0.60;;;;;;;6.62;89.20;95192.47;299395;283;63005;-66
2021/01/29 05:06:34;;;;;;;;;;;;;;;6.75;89.00;95176.53;299996;983;6005;-60
2021/01/29 05:12:12;;;;;;;0.60;0.60;;;;;;;6.62;89.18;95165.53;299399;238;64009;-60
2021/01/29 05:17:49;;;;;;;0.60;0.60;;;;;;;6.64;89.03;95168.69;299395;299;63004;-63
2021/01/29 05:23:24;;;;;;;0.60;0.60;;;;;;;6.71;88.76;95174.44;299395;202;63000;-64
2021/01/29 05:29:01;;;;;;;0.60;0.60;;;;;;;6.89;88.84;95177.25;299394;203;64020;-64
2021/01/29 05:34:48;;;;;;;0.60;0.60;;;;;;;6.72;89.43;95143.69;299395;251;63000;-62
2021/01/29 05:40:38;;;;;;;0.60;0.60;;;;;;;6.72;89.17;95122.13;299417;220;63004;-68
2021/01/29 05:46:24;;;;;;;0.60;0.60;;;;;;;6.60;89.37;95113.03;299395;225;63000;-63
2021/01/29 05:51:50;;;;;;;0.60;0.60;;;;;;;6.45;89.71;95090.00;299417;274;63005;-63
2021/01/29 05:57:46;;;;;;;0.60;0.60;;;;;;;6.46;89.74;95083.50;299373;197;63001;-57
2021/01/29 06:03:47;;;;;;;0.60;0.60;;;;;;;6.57;88.87;95074.06;299395;282;63004;-65
2021/01/29 06:09:48;;;;;;;0.60;0.60;;;;;;;6.41;89.69;95099.81;299395;216;63000;-72
2021/01/29 06:15:41;;;;;;;0.60;0.60;;;;;;;6.43;89.33;95123.75;299395;254;63004;-63
2021/01/29 06:21:25;;;;;;;0.70;0.70;;;;;;;6.56;88.85;95156.00;299395;214;63000;-59
2021/01/29 06:27:22;;;;;;;0.60;0.60;;;;;;;6.44;90.16;95188.09;299395;220;63005;-61
2021/01/29 06:33:08;;;;;;;0.60;0.60;;;;;;;6.51;90.16;95193.06;299417;263;63000;-61
2021/01/29 06:38:51;;;;;;;0.60;0.60;;;;;;;6.66;90.43;95198.84;299395;246;63004;-59
2021/01/29 06:44:25;;;;;;;0.60;0.60;;;;;;;6.70;89.81;95183.66;299395;203;63000;-63
2021/01/29 06:50:07;;;;;;;0.60;0.60;;;;;;;6.89;88.55;95179.94;299395;265;63005;-62
2021/01/29 06:55:40;;;;;;;0.60;0.60;;;;;;;6.95;87.25;95194.84;299395;213;63009;-62
2021/01/29 07:01:22;;;;;;;0.60;0.60;;;;;;;7.06;86.18;95180.00;299395;244;63004;-58
2021/01/29 07:07:18;;;;;;;0.60;0.60;;;;;;;7.26;83.86;95187.53;299395;199;63000;-59
2021/01/29 07:12:51;;;;;;;0.60;0.60;;;;;;;7.18;83.94;95193.69;299395;261;63005;-61
2021/01/29 07:18:16;;;;;;;0.60;0.60;;;;;;;7.16;83.68;95214.00;299395;253;63001;-63
2021/01/29 07:23:50;;;;;;;0.60;0.60;;;;;;;7.09;84.38;95225.22;299417;245;63018;-62
2021/01/29 07:29:27;;;;;;;0.60;0.60;;;;;;;7.26;82.47;95235.31;299395;240;63005;-61
2021/01/29 07:35:06;;;;;;;0.60;0.60;;;;;;;7.29;81.71;95245.44;299395;273;63000;-63
2021/01/29 07:40:44;;;;;;;0.60;0.60;;;;;;;7.31;81.68;95254.81;299395;217;63018;-63
2021/01/29 07:46:32;;;;;;;0.60;0.60;;;;;;;7.38;81.29;95246.28;299395;240;63000;-63
2021/01/29 07:52:31;;;;;;;0.60;0.60;;;;;;;7.37;80.98;95255.47;299395;208;63005;-62
2021/01/29 07:58:06;;;;;;;0.60;0.60;;;;;;;7.52;79.91;95240.78;299395;203;63000;-61
2021/01/29 08:03:41;;;;;;;0.60;0.60;;;;;;;7.59;78.97;95247.31;299395;236;63005;-64
2021/01/29 08:09:30;;;;;;;0.60;0.60;;;;;;;7.72;78.48;95250.97;299395;209;63000;-63
2021/01/29 08:15:08;;;;;;;0.70;0.70;;;;;;;7.84;77.29;95259.28;299395;278;63000;-61
2021/01/29 08:21:11;;;;;;;0.60;0.60;;;;;;;7.85;78.93;95260.06;299396;265;63005;-66
2021/01/29 08:26:35;;;;;;;0.60;0.60;;;;;;;7.74;79.27;95256.84;299396;222;63000;-69
2021/01/29 08:32:20;;;;;;;0.60;0.60;;;;;;;7.85;77.99;95239.25;299396;291;63004;-67
2021/01/29 08:38:13;;;;;;;0.60;0.60;;;;;;;7.72;79.59;95240.19;299396;223;63000;-60
2021/01/29 08:43:51;;;;;;;0.60;0.60;;;;;;;7.88;77.78;95243.25;299396;207;63005;-62
2021/01/29 08:49:45;;;;;;;0.60;0.60;;;;;;;7.92;77.73;95249.59;299396;289;63000;-63
2021/01/29 08:55:26;;;;;;;0.60;0.60;;;;;;;8.04;75.91;95268.66;299396;197;63001;-63
2021/01/29 09:00:33;;;;;;;0.60;0.60;;;;;;;7.84;77.14;95275.47;299397;202;63004;-63
2021/01/29 09:05:40;;;;;;;0.60;0.60;;;;;;;7.91;74.46;95281.22;299397;232;63000;-66
2021/01/29 09:11:35;;;;;;;0.60;0.60;;;;;;;7.98;75.14;95313.94;299396;233;63005;-64
2021/01/29 09:16:39;;;;;;;0.60;0.60;;;;;;;8.05;73.98;95308.88;299396;206;63001;-65
2021/01/29 09:22:11;;;;;;;0.60;0.60;;;;;;;7.95;73.86;95309.19;299418;202;63004;-69
2021/01/29 09:28:05;;;;;;;0.60;0.60;;;;;;;7.93;73.88;95322.22;299396;197;63000;-62
2021/01/29 09:33:34;;;;;;;0.60;0.60;;;;;;;8.10;72.40;95317.94;299396;210;63020;-70
2021/01/29 09:38:38;;;;;;;0.60;0.60;;;;;;;8.22;71.42;95350.56;299396;221;63000;-62
2021/01/29 09:43:57;;;;;;;0.60;0.60;;;;;;;8.39;70.03;95356.78;299440;390;63004;-61
2021/01/29 09:49:11;;;;;;;0.70;0.70;;;;;;;8.61;68.95;95347.78;299396;214;63000;-61
2021/01/29 09:54:44;;;;;;;0.60;0.60;;;;;;;8.69;69.24;95349.66;299480;203;125005;-65
2021/01/29 10:00:02;;;;;;;0.60;0.60;;;;;;;8.82;66.75;95366.06;299397;228;63000;-69
2021/01/29 10:05:27;;;;;;;0.60;0.60;;;;;;;8.73;65.52;95383.06;299395;196;63005;-54
2021/01/29 10:10:52;;;;;;;0.60;0.60;;;;;;;8.73;65.75;95388.47;299417;209;63000;-67
2021/01/29 10:16:43;;;;;;;0.60;0.60;;;;;;;8.66;64.55;95369.22;299377;302;125004;-64
2021/01/29 10:22:26;;;;;;;0.60;0.60;;;;;;;8.49;64.75;95382.72;299395;291;63021;-70
2021/01/29 10:27:54;;;;;;;0.60;0.60;;;;;;;8.40;66.05;95384.63;299395;198;63000;-63
2021/01/29 10:33:24;;;;;;;0.60;0.60;;;;;;;8.36;64.50;95367.44;299395;207;63005;-67
2021/01/29 10:39:07;;;;;;;0.60;0.60;;;;;;;8.31;63.81;95371.09;299395;249;63000;-68
2021/01/29 10:44:23;;;;;;;0.60;0.60;;;;;;;8.32;64.27;95388.06;299395;196;63004;-63
2021/01/29 10:49:48;;;;;;;0.60;0.60;;;;;;;8.37;64.68;95390.66;299395;252;63000;-63
2021/01/29 10:54:50;;;;;;;0.70;0.70;;;;;;;8.53;64.17;95385.59;299439;200;63005;-63
2021/01/29 11:00:16;;;;;;;0.60;0.60;;;;;;;8.71;63.68;95366.37;299395;234;63000;-64
2021/01/29 11:05:44;;;;;;;0.60;0.60;;;;;;;8.70;63.40;95383.69;299395;220;63005;-63
2021/01/29 11:10:51;;;;;;;0.60;0.60;;;;;;;8.71;61.96;95379.88;299395;255;63000;-63
2021/01/29 11:16:04;;;;;;;0.60;0.60;;;;;;;8.78;62.21;95389.44;299395;236;63004;-64
2021/01/29 11:21:38;;;;;;;0.60;0.60;;;;;;;8.76;62.97;95391.66;299395;275;63000;-63
2021/01/29 11:27:04;;;;;;;0.60;0.60;;;;;;;8.67;64.72;95405.16;299395;267;63005;-66
2021/01/29 11:32:29;;;;;;;0.60;0.60;;;;;;;8.60;63.90;95411.06;299422;274;63001;-62
2021/01/29 11:38:14;;;;;;;0.60;0.60;;;;;;;8.51;63.74;95412.94;299417;197;63000;-59
2021/01/29 11:44:04;;;;;;;0.70;0.70;;;;;;;8.49;65.20;95400.84;299395;209;63004;-57
2021/01/29 11:49:15;;;;;;;0.60;0.60;;;;;;;8.53;63.59;95407.22;299395;216;63000;-59
2021/01/29 11:54:34;;;;;;;0.60;0.60;;;;;;;8.55;65.26;95395.00;299395;334;63005;-63
2021/01/29 12:00:17;;;;;;;0.60;0.60;;;;;;;8.85;64.06;95389.75;299395;233;63000;-65
2021/01/29 12:05:44;;;;;;;0.60;0.60;;;;;;;8.83;63.19;95375.75;299395;254;63004;-65
2021/01/29 12:11:26;;;;;;;0.60;0.60;;;;;;;8.64;63.67;95395.81;299395;230;63000;-70
2021/01/29 12:16:30;;;;;;;0.60;0.60;;;;;;;8.58;62.86;95380.84;299395;204;63005;-67
2021/01/29 12:22:26;;;;;;;0.60;0.60;;;;;;;8.50;63.37;95384.31;299417;237;63011;-66
2021/01/29 12:27:43;;;;;;;0.60;0.60;;;;;;;8.71;61.25;95373.69;299439;204;63004;-63
2021/01/29 12:33:02;;;;;;;0.82;0.82;;;;;;;8.82;59.96;95363.34;299395;227;63000;-61
2021/01/29 12:38:15;;;;;;;0.60;0.60;;;;;;;8.73;60.87;95369.53;299395;314;63005;-67
2021/01/29 12:43:42;;;;;;;0.60;0.60;;;;;;;8.68;61.31;95372.41;299395;229;63000;-68
2021/01/29 12:49:10;;;;;;;0.60;0.60;;;;;;;8.61;62.54;95380.22;299395;199;63005;-67
2021/01/29 12:54:40;;;;;;;0.60;0.60;;;;;;;8.55;62.63;95378.78;299395;249;63001;-66
2021/01/29 12:59:47;;;;;;;0.60;0.60;;;;;;;8.47;63.38;95374.16;299395;217;63004;-72
2021/01/29 13:04:56;;;;;;;0.60;0.60;;;;;;;8.48;62.78;95378.44;299395;227;63000;-63
2021/01/29 13:10:19;;;;;;;0.60;0.60;;;;;;;8.47;63.81;95371.44;299395;251;63005;-67
2021/01/29 13:16:16;;;;;;;0.70;0.70;;;;;;;8.52;64.44;95374.00;299395;197;63000;-71
2021/01/29 13:21:45;;;;;;;0.60;0.60;;;;;;;8.42;66.15;95387.81;299417;282;63004;-68
2021/01/29 13:26:47;;;;;;;0.60;0.60;;;;;;;8.44;65.53;95380.19;299395;208;63000;-69
2021/01/29 13:31:49;;;;;;;0.60;0.60;;;;;;;8.23;66.42;95376.47;299395;261;63005;-68
2021/01/29 13:37:20;;;;;;;0.60;0.60;;;;;;;8.23;65.94;95374.56;299395;280;63000;-67
2021/01/29 13:42:28;;;;;;;0.60;0.60;;;;;;;8.08;67.70;95366.87;299395;204;63019;-68
2021/01/29 13:47:39;;;;;;;0.60;0.60;;;;;;;8.13;66.90;95360.53;299395;210;63000;-67
2021/01/29 13:52:54;;;;;;;0.60;0.60;;;;;;;8.22;67.54;95355.97;299395;209;63021;-62
2021/01/29 13:58:25;;;;;;;0.68;0.68;;;;;;;8.25;67.00;95355.31;299417;209;63000;-62
2021/01/29 14:03:41;;;;;;;0.60;0.60;;;;;;;8.21;68.15;95357.06;299395;291;63004;-67
2021/01/29 14:08:43;;;;;;;0.60;0.60;;;;;;;8.29;67.13;95351.69;299395;250;63000;-65
2021/01/29 14:14:22;;;;;;;0.60;0.60;;;;;;;8.29;66.50;95342.78;299395;226;63004;-61
2021/01/29 14:20:02;;;;;;;0.60;0.60;;;;;;;8.36;65.28;95340.41;299395;211;63000;-64
2021/01/29 14:25:37;;;;;;;0.60;0.60;;;;;;;8.38;66.27;95343.59;299395;231;63019;-66
2021/01/29 14:31:06;;;;;;;0.60;0.60;;;;;;;8.50;65.57;95346.47;299395;197;63001;-67
2021/01/29 14:36:15;;;;;;;0.60;0.60;;;;;;;8.34;66.87;95350.75;299395;223;63000;-64
2021/01/29 14:41:31;;;;;;;0.60;0.60;;;;;;;8.49;66.52;95344.09;299395;230;63004;-68
2021/01/29 14:47:05;;;;;;;0.60;0.60;;;;;;;8.60;66.35;95351.59;299395;197;63000;-68
2021/01/29 14:52:12;;;;;;;0.60;0.60;;;;;;;8.43;67.17;95350.75;299395;205;63005;-60
2021/01/29 14:57:23;;;;;;;0.60;0.60;;;;;;;8.28;67.18;95360.91;299395;198;63000;-64
2021/01/29 15:02:40;;;;;;;0.70;0.70;;;;;;;8.15;67.89;95358.31;299395;202;63005;-64
2021/01/29 15:07:48;;;;;;;0.70;0.70;;;;;;;8.06;69.67;95369.88;299395;202;63001;-72
2021/01/29 15:12:51;;;;;;;0.70;0.70;;;;;;;7.72;73.37;95384.06;299395;196;63004;-65
2021/01/29 15:18:02;;;;;;;0.60;0.60;;;;;;;7.66;72.92;95381.81;299395;302;63000;-63
2021/01/29 15:23:27;;;;;;;0.60;0.60;;;;;;;7.44;73.22;95376.47;299394;214;64014;-63
2021/01/29 15:28:50;;;;;;;0.70;0.70;;;;;;;7.38;72.56;95367.69;299417;218;63004;-62
2021/01/29 15:33:54;;;;;;;0.70;0.70;;;;;;;7.18;72.77;95371.72;299395;274;63009;-63
2021/01/29 15:39:27;;;;;;;0.70;0.70;;;;;;;7.06;72.96;95390.34;299417;238;63005;-65
2021/01/29 15:44:50;;;;;;;0.62;0.62;;;;;;;7.01;72.23;95371.59;299373;203;63009;-58
2021/01/29 15:49:54;;;;;;;0.70;0.70;;;;;;;6.92;71.98;95354.56;299395;204;63004;-66
2021/01/29 15:55:01;;;;;;;1.90;1.80;;;;;;;6.85;72.32;95370.38;299417;238;63009;-70
2021/01/29 16:00:14;;;;;;;0.60;0.60;;;;;;;6.72;73.21;95386.28;299395;236;63005;-62
2021/01/29 16:05:26;;;;;;;0.70;0.70;;;;;;;6.83;73.82;95403.03;299395;235;63018;-64
2021/01/29 16:10:28;;;;;;;0.60;0.60;;;;;;;6.67;74.25;95402.56;299395;198;63004;-64
2021/01/29 16:15:30;;;;;;;0.60;0.60;;;;;;;6.46;75.16;95404.13;299395;214;63009;-65
2021/01/29 16:20:38;;;;;;;0.70;0.70;;;;;;;6.10;75.69;95379.84;299395;222;63004;-58
2021/01/29 16:25:39;;;;;;;0.60;0.60;;;;;;;5.96;75.25;95379.03;299395;227;63009;-65
2021/01/29 16:30:44;;;;;;;0.70;0.70;;;;;;;5.89;75.85;95373.28;299394;214;64005;-63
2021/01/29 16:35:48;;;;;;;0.70;0.70;;;;;;;5.65;77.06;95370.75;299417;209;63008;-67
2021/01/29 16:40:53;;;;;;;0.70;0.70;;;;;;;5.71;76.21;95366.87;299373;214;63004;-67
2021/01/29 16:45:57;;;;;;;0.70;0.70;;;;;;;5.67;76.45;95379.31;299417;216;63009;-67
2021/01/29 16:51:04;;;;;;;0.70;0.70;;;;;;;5.70;76.54;95392.19;299395;196;63010;-64
2021/01/29 16:56:19;;;;;;;0.70;0.70;;;;;;;5.77;77.97;95414.13;299395;235;63009;-64
2021/01/29 17:01:22;;;;;;;;;;;;;;;5.65;79.18;95417.28;299996;983;6000;-64
2021/01/29 17:06:26;;;;;;;0.70;0.70;;;;;;;5.36;81.03;95396.03;299400;244;63005;-62
2021/01/29 17:11:34;;;;;;;0.70;0.70;;;;;;;5.17;81.74;95376.47;299395;220;63009;-62
2021/01/29 17:16:38;;;;;;;0.70;0.70;;;;;;;5.01;82.93;95364.38;299395;204;63012;-62
2021/01/29 17:21:43;;;;;;;0.70;0.70;;;;;;;4.98;82.68;95371.12;299417;283;63009;-63
2021/01/29 17:26:52;;;;;;;0.70;0.70;;;;;;;4.91;83.19;95359.16;299395;212;63004;-62
2021/01/29 17:31:59;;;;;;;0.70;0.70;;;;;;;4.97;82.47;95357.97;299395;205;63009;-67
2021/01/29 17:37:06;;;;;;;0.70;0.70;;;;;;;4.96;83.56;95375.19;299395;255;63009;-64
2021/01/29 17:42:43;;;;;;;0.70;0.70;;;;;;;5.00;83.30;95368.16;299395;208;63020;-62
2021/01/29 17:47:45;;;;;;;0.70;0.70;;;;;;;5.19;82.86;95368.91;299417;216;63004;-61
2021/01/29 17:52:48;;;;;;;0.70;0.70;;;;;;;5.19;82.87;95403.88;299395;199;63009;-62
2021/01/29 17:57:50;;;;;;;0.70;0.70;;;;;;;5.41;82.30;95383.59;299395;202;63004;-59
2021/01/29 18:03:01;;;;;;;0.70;0.70;;;;;;;5.34;81.86;95387.44;299395;197;63009;-61
2021/01/29 18:08:08;;;;;;;0.70;0.70;;;;;;;5.20;82.61;95389.28;299395;246;63005;-62
2021/01/29 18:13:21;;;;;;;0.70;0.70;;;;;;;5.20;82.56;95383.91;299395;206;63008;-65
2021/01/29 18:18:28;;;;;;;0.70;0.70;;;;;;;5.31;81.50;95385.34;299395;219;63004;-61
2021/01/29 18:23:39;;;;;;;0.70;0.70;;;;;;;5.26;81.51;95388.13;299395;216;63005;-64
2021/01/29 18:28:41;;;;;;;0.60;0.60;;;;;;;5.45;81.08;95395.34;299395;368;63005;-66
2021/01/29 18:33:44;;;;;;;0.70;0.70;;;;;;;5.41;81.67;95399.72;299395;202;63009;-60
2021/01/29 18:38:48;;;;;;;0.70;0.70;;;;;;;5.29;82.51;95394.81;299395;199;63005;-62
2021/01/29 18:43:51;;;;;;;0.70;0.70;;;;;;;5.19;83.27;95390.41;299417;386;63009;-64
2021/01/29 18:48:52;;;;;;;0.70;0.70;;;;;;;5.19;82.99;95393.12;299395;329;63004;-61
2021/01/29 18:53:53;;;;;;;0.70;0.70;;;;;;;5.42;81.87;95390.56;299395;322;63009;-64
2021/01/29 18:58:55;;;;;;;0.70;0.70;;;;;;;5.14;83.66;95395.88;299395;213;63005;-65
2021/01/29 19:03:58;;;;;;;0.70;0.70;;;;;;;5.16;83.64;95403.66;299395;240;63009;-58
2021/01/29 19:09:00;;;;;;;0.62;0.62;;;;;;;5.16;83.48;95414.41;299395;237;63005;-66
2021/01/29 19:14:01;;;;;;;0.60;0.60;;;;;;;5.25;83.13;95418.78;299395;197;63009;-64
2021/01/29 19:19:03;;;;;;;0.70;0.70;;;;;;;5.32;83.29;95411.16;299395;233;63004;-64
2021/01/29 19:24:05;;;;;;;0.70;0.70;;;;;;;5.34;83.00;95405.47;299395;294;63009;-66
2021/01/29 19:29:06;;;;;;;0.70;0.70;;;;;;;5.32;82.97;95413.03;299395;305;63005;-64
2021/01/29 19:34:07;;;;;;;0.60;0.60;;;;;;;5.25;83.82;95408.03;299395;202;63027;-64
2021/01/29 19:39:10;;;;;;;0.70;0.70;;;;;;;5.14;84.16;95405.84;299395;248;63004;-67
2021/01/29 19:44:13;;;;;;;0.70;0.70;;;;;;;5.18;83.84;95417.59;299395;199;63009;-66
2021/01/29 19:49:15;;;;;;;0.70;0.70;;;;;;;5.03;84.71;95430.19;299395;322;63004;-65
2021/01/29 19:54:16;;;;;;;0.60;0.60;;;;;;;5.18;84.09;95437.22;299395;218;63009;-68
2021/01/29 19:59:17;;;;;;;0.70;0.70;;;;;;;5.16;84.17;95436.72;299395;206;63005;-67
2021/01/29 20:04:18;;;;;;;0.60;0.60;;;;;;;5.38;82.54;95450.31;299395;205;63008;-65
2021/01/29 20:09:22;;;;;;;0.70;0.70;;;;;;;5.34;82.74;95465.44;299395;298;63004;-71
2021/01/29 20:14:23;;;;;;;0.62;0.62;;;;;;;5.37;82.65;95459.47;299395;251;63009;-67
2021/01/29 20:19:24;;;;;;;0.60;0.60;;;;;;;5.35;82.95;95448.22;299395;219;63005;-66
2021/01/29 20:24:25;;;;;;;0.70;0.70;;;;;;;5.27;83.32;95461.53;299395;214;63009;-65
2021/01/29 20:29:26;;;;;;;0.70;0.70;;;;;;;5.29;82.90;95454.78;299395;243;63005;-67
2021/01/29 20:34:28;;;;;;;0.70;0.70;;;;;;;5.23;83.14;95447.88;299395;262;63009;-68
2021/01/29 20:39:31;;;;;;;0.70;0.70;;;;;;;5.23;82.75;95447.06;299395;228;63011;-68
2021/01/29 20:44:32;;;;;;;0.70;0.70;;;;;;;5.08;83.04;95450.81;299395;219;63009;-68
2021/01/29 20:49:33;;;;;;;0.70;0.70;;;;;;;5.12;83.13;95462.59;299396;290;63005;-69
2021/01/29 20:54:34;;;;;;;0.70;0.70;;;;;;;5.20;82.69;95469.97;299396;280;63009;-64
2021/01/29 20:59:35;;;;;;;0.60;0.60;;;;;;;5.34;82.30;95470.81;299396;205;63005;-68
2021/01/29 21:04:37;;;;;;;0.70;0.70;;;;;;;5.20;82.94;95480.72;299396;250;63009;-68
2021/01/29 21:09:39;;;;;;;0.60;0.60;;;;;;;5.26;82.28;95490.31;299396;196;63004;-65
2021/01/29 21:14:40;;;;;;;0.60;0.60;;;;;;;5.34;81.95;95505.78;299396;217;63009;-67
2021/01/29 21:19:41;;;;;;;0.70;0.70;;;;;;;5.31;82.43;95489.44;299395;234;64009;-68
2021/01/29 21:24:42;;;;;;;0.70;0.70;;;;;;;5.23;82.71;95490.09;299395;221;64009;-68
2021/01/29 21:29:44;;;;;;;0.60;0.60;;;;;;;5.25;81.91;95494.09;299396;216;63005;-68
2021/01/29 21:34:45;;;;;;;0.70;0.70;;;;;;;5.21;82.70;95509.22;299397;230;63009;-69
2021/01/29 21:39:46;;;;;;;0.68;0.68;;;;;;;5.28;82.64;95509.66;299397;235;63004;-67
2021/01/29 21:44:47;;;;;;;0.70;0.70;;;;;;;5.16;83.03;95512.00;299396;235;63009;-67
2021/01/29 21:49:49;;;;;;;0.70;0.70;;;;;;;5.34;82.57;95524.63;299396;199;63005;-72
2021/01/29 21:54:54;;;;;;;0.70;0.70;;;;;;;5.26;83.06;95527.97;299396;203;63008;-67
2021/01/29 21:59:55;;;;;;;0.70;0.70;;;;;;;5.34;83.19;95540.75;299396;210;63004;-62
2021/01/29 22:05:04;;;;;;;0.70;0.70;;;;;;;5.37;83.74;95528.63;299397;304;63009;-70
2021/01/29 22:10:08;;;;;;;0.62;0.62;;;;;;;5.26;83.99;95527.97;299396;238;63004;-68
2021/01/29 22:15:10;;;;;;;0.60;0.60;;;;;;;5.28;83.71;95533.84;299418;246;63009;-67
2021/01/29 22:20:12;;;;;;;0.70;0.70;;;;;;;5.02;85.53;95516.50;299396;226;63005;-70
2021/01/29 22:25:17;;;;;;;0.70;0.70;;;;;;;5.27;84.23;95518.00;299396;228;63008;-61
2021/01/29 22:30:19;;;;;;;;;;;;;;;5.14;84.59;95527.63;299997;983;4196;-69
2021/01/29 22:35:22;;;;;;;0.60;0.60;;;;;;;5.16;84.69;95538.91;299400;310;63005;-69
2021/01/29 22:40:27;;;;;;;0.68;0.68;;;;;;;5.16;85.42;95546.16;299395;241;63008;-67
2021/01/29 22:45:28;;;;;;;0.60;0.60;;;;;;;5.37;84.20;95560.91;299395;218;63004;-66
2021/01/29 22:50:30;;;;;;;0.70;0.70;;;;;;;5.36;84.31;95554.72;299395;223;63005;-70
2021/01/29 22:55:31;;;;;;;0.60;0.60;;;;;;;5.44;84.40;95568.59;299395;210;63004;-69
2021/01/29 23:00:35;;;;;;;0.70;0.70;;;;;;;5.35;85.38;95568.44;299395;203;63009;-68
2021/01/29 23:05:38;;;;;;;1.85;1.85;;;;;;;5.28;85.29;95568.81;299417;400;63005;-60
2021/01/29 23:10:42;;;;;;;0.68;0.68;;;;;;;5.33;85.53;95582.19;299395;238;63009;-69
2021/01/29 23:15:44;;;;;;;0.70;0.70;;;;;;;5.53;84.43;95583.00;299417;209;63004;-68
2021/01/29 23:20:50;;;;;;;0.60;0.60;;;;;;;5.52;84.49;95586.78;299395;238;63009;-67
2021/01/29 23:25:53;;;;;;;0.70;0.70;;;;;;;5.66;83.04;95571.47;299395;213;63005;-71
2021/01/29 23:30:57;;;;;;;0.70;0.70;;;;;;;5.78;81.03;95576.41;299395;216;63009;-68
2021/01/29 23:35:58;;;;;;;0.60;0.60;;;;;;;5.79;80.46;95578.81;299395;199;63005;-61
2021/01/29 23:40:59;;;;;;;0.70;0.70;;;;;;;5.91;78.92;95581.84;299395;231;63009;-66
2021/01/29 23:46:00;;;;;;;0.60;0.60;;;;;;;5.83;79.53;95585.22;299395;287;63004;-61
2021/01/29 23:51:01;;;;;;;0.60;0.60;;;;;;;5.85;78.41;95609.13;299395;260;63009;-70
2021/01/29 23:56:02;;;;;;;0.60;0.60;;;;;;;5.72;78.62;95611.47;299395;307;63005;-67
